El Paso, TX (88520)

12:53 AM MDT on July 28, 2016 (GMT -0600)
Park Foothills | | Change Station

Elev 4039 ft 31.85 °N, 106.45 °W | Updated 15 seconds ago

Partly Cloudy
Partly Cloudy
79.2 °F
Feels Like 80 °F
N
3.0
Wind Variable Wind from NW
Gusts 3.0 mph

Today
High -- | Low -- °F
--% Chance of Precip.
Yesterday
High -- | Low -- °F
Precip. -- in
Pressure 29.84 in
Visibility 10.0 miles
Clouds Few 14000 ft
Few 25000 ft
Heat Index 80 °F
Dew Point 58 °F
Humidity 49%
Rainfall 0.00 in
Snow Depth Not available.
6:19 AM 8:04 PM
Waning Crescent, 35% visible
METAR KELP 280651Z 00000KT 10SM FEW140 FEW250 27/16 A3007 RMK AO2 SLP103 T02720156 403560228
Pressure 29.84 in
Visibility 10.0 miles
Clouds Few 14000 ft
Few 25000 ft
Heat Index 80 °F
Dew Point 58 °F
Humidity 49%
Rainfall 0.00 in
Snow Depth Not available.
6:19 AM 8:04 PM
Waning Crescent, 35% visible
METAR KELP 280651Z 00000KT 10SM FEW140 FEW250 27/16 A3007 RMK AO2 SLP103 T02720156 403560228

10-Day Weather Forecast

Almanac

Astronomy

Jul. 28, 2016 Rise Set
Actual Time
Civil Twilight
Nautical Twilight
Astronomical Twilight
Moon
Length of Visible Light
Length of Day
Tomorrow will be .
, % of the Moon is Illuminated

Today's Extremes

State Highs State Lows

Community

WunderPhotos

Upload Photos

1,928,064 photos uploaded!

WunderBlog® & News

Nearby

Air Quality

  Air Quality AQ Index Pollutant
Not available.

Snow Depth

Station Depth Elevation

Earthquake Activity

City Distance Mag. Time & Date
Minimum magnitude displayed is 2.5.

Coastal Water Temperatures

Place Temperature

Stations

Nearby Weather Stations

Station Location Temp. Windchill Dew Point Humidity Wind Precip. Elev Updated Type
                   

Watches & Warnings

There are currently no watches in effect.